This is the latest recevied weather packets stored in our database for station/object VK4SSH. If no packets are shown the sender has not sent any weather packets the latest 10 day(s).
| Time | Temp. | Humidity | Pressure | Rain* | Wind** | Luminosity | Snow |
|---|---|---|---|---|---|---|---|
| 1777604128 | 23.89° C | 68% | - | 0 mm | - | - | - |
| 1777603527 | 23.89° C | 69% | - | 0 mm | - | - | - |
| 1777602928 | 23.89° C | 70% | - | 0 mm | - | - | - |
| 1777602327 | 23.33° C | 74% | - | 0 mm | - | - | - |
| 1777601728 | 23.33° C | 77% | - | 0 mm | - | - | - |
| 1777601127 | 22.78° C | 78% | - | 0 mm | - | - | - |
| 1777600527 | 22.22° C | 83% | - | 0 mm | - | - | - |
| 1777599927 | 22.78° C | 82% | - | 0 mm | - | - | - |
| 1777599327 | 23.33° C | 79% | - | 0 mm | - | - | - |
| 1777598727 | 23.33° C | 78% | - | 0 mm | - | - | - |
| 1777598127 | 23.89° C | 77% | - | 0 mm | - | - | - |
| 1777597527 | 23.33° C | 76% | - | 0 mm | - | - | - |
| 1777596927 | 23.33° C | 77% | - | 0 mm | - | - | - |
| 1777596327 | 23.33° C | 77% | - | 0 mm | - | - | - |
| 1777595727 | 23.89° C | 76% | - | 0 mm | - | - | - |
| 1777595127 | 24.44° C | 75% | - | 0 mm | - | - | - |
| 1777594527 | 23.89° C | 74% | - | 0 mm | - | - | - |
| 1777593927 | 23.33° C | 76% | - | 0 mm | - | - | - |
| 1777593327 | 22.22° C | 78% | - | 0 mm | - | - | - |
| 1777592727 | 22.22° C | 82% | - | 0 mm | - | - | - |
| 1777592127 | 22.22° C | 80% | - | 0 mm | - | - | - |
| 1777591527 | 21.67° C | 81% | - | 0 mm | - | - | - |
| 1777590927 | 21.11° C | 85% | - | 0 mm | - | - | - |
| 1777590327 | 21.11° C | 84% | - | 0 mm | - | - | - |
| 1777589727 | 20.56° C | 85% | - | 0 mm | - | - | - |
* Rain latest hour (hover to see other rain measurements)
** Current wind speed in m/s (hover to see current wind gust speed)